Time;durP1;ratioP1;P1;durP2;ratioP2;P2;SDS_P1;SDS_P2;PMS_P1;PMS_P2;Temp;Humidity;BMP_temperature;BMP_pressure;BME280_temperature;BME280_humidity;BME280_pressure;Samples;Min_cycle;Max_cycle;Signal;HPM_P1;HPM_P2
2022/02/11 00:01:03;;;;;;;5.93;4.43;;;6.50;99.90;;;;;;2116594;27;20032;-72
2022/02/11 00:04:39;;;;;;;7.72;4.95;;;6.50;99.90;;;;;;2118594;28;20021;-72
2022/02/11 00:06:31;;;;;;;5.88;4.43;;;6.50;99.90;;;;;;2121921;28;20019;-72
2022/02/11 00:07:00;;;;;;;8.75;4.93;;;6.50;99.90;;;;;;2115426;28;20023;-72
2022/02/11 00:08:00;;;;;;;5.53;4.65;;;6.40;99.90;;;;;;2116455;28;20019;-72
2022/02/11 00:09:01;;;;;;;9.15;5.22;;;6.40;99.90;;;;;;2119054;28;20471;-72
2022/02/11 00:10:05;;;;;;;5.75;4.45;;;6.40;99.90;;;;;;2119530;27;20031;-72
2022/02/11 00:11:09;;;;;;;10.93;5.53;;;6.40;99.90;;;;;;2122795;27;20079;-72
2022/02/11 00:12:10;;;;;;;7.28;5.00;;;6.40;99.90;;;;;;2121070;27;20024;-72
2022/02/11 00:13:10;;;;;;;5.93;5.32;;;6.40;99.90;;;;;;2119851;27;20160;-72
2022/02/11 00:14:11;;;;;;;9.43;5.82;;;6.40;99.90;;;;;;2118643;27;20022;-72
2022/02/11 00:16:12;;;;;;;8.93;5.63;;;6.40;99.90;;;;;;2120420;27;20495;-72
2022/02/11 00:17:14;;;;;;;10.80;6.15;;;6.40;99.90;;;;;;2120021;27;20529;-73
2022/02/11 00:18:16;;;;;;;7.88;5.78;;;6.40;99.90;;;;;;2121763;27;20019;-72
2022/02/11 00:19:16;;;;;;;8.15;6.53;;;6.40;99.90;;;;;;2123980;27;20076;-72
2022/02/11 00:20:17;;;;;;;8.13;6.40;;;6.40;99.90;;;;;;2122845;27;20018;-72
2022/02/11 00:21:21;;;;;;;12.38;6.47;;;6.40;99.90;;;;;;2120226;27;20026;-72
2022/02/11 00:22:22;;;;;;;9.43;6.18;;;6.50;99.90;;;;;;2117290;27;20367;-72
2022/02/11 00:23:22;;;;;;;9.57;7.18;;;6.40;99.90;;;;;;2119118;27;20019;-72
2022/02/11 00:24:23;;;;;;;13.10;6.53;;;6.50;99.90;;;;;;2118952;27;20027;-72
2022/02/11 00:25:24;;;;;;;7.25;6.22;;;6.40;99.90;;;;;;2121817;27;20011;-72
2022/02/11 00:26:31;;;;;;;9.95;6.28;;;6.40;99.90;;;;;;2124592;27;20011;-72
2022/02/11 00:30:24;;;;;;;10.98;7.22;;;6.40;99.90;;;;;;2128960;27;20011;-72
2022/02/11 00:32:35;;;;;;;11.37;6.70;;;6.40;99.90;;;;;;2125507;27;20011;-72
2022/02/11 00:33:38;;;;;;;8.60;6.65;;;6.40;99.90;;;;;;2119104;27;20028;-72
2022/02/11 00:34:48;;;;;;;10.88;6.72;;;6.40;99.90;;;;;;2125854;27;20019;-72
2022/02/11 00:37:16;;;;;;;9.82;7.20;;;6.40;99.90;;;;;;2122359;27;20027;-73
2022/02/11 00:38:23;;;;;;;8.52;6.72;;;6.40;99.90;;;;;;2123049;27;20145;-73
2022/02/11 00:39:55;;;;;;;8.25;7.18;;;6.40;99.90;;;;;;2120671;27;20076;-72
2022/02/11 00:41:30;;;;;;;9.52;6.95;;;6.40;99.90;;;;;;2120291;27;20031;-72
2022/02/11 00:46:28;;;;;;;10.75;7.55;;;6.20;99.90;;;;;;2121787;27;20023;-72
2022/02/11 01:03:02;;;;;;;12.15;8.35;;;6.30;99.90;;;;;;2123648;27;20035;-72
2022/02/11 01:04:06;;;;;;;9.18;8.27;;;6.30;99.90;;;;;;2121141;27;20035;-72
2022/02/11 01:05:07;;;;;;;10.63;8.55;;;6.30;99.90;;;;;;2123213;27;20027;-72
2022/02/11 01:06:08;;;;;;;9.35;8.30;;;6.30;99.90;;;;;;2124737;27;20054;-73
2022/02/11 01:07:09;;;;;;;11.02;8.40;;;6.30;99.90;;;;;;2126720;27;20019;-72
2022/02/11 01:08:10;;;;;;;12.73;9.02;;;6.30;99.90;;;;;;2122106;27;20459;-72
2022/02/11 01:09:13;;;;;;;13.82;9.27;;;6.30;99.90;;;;;;2118998;27;20440;-72
2022/02/11 01:10:16;;;;;;;13.65;9.18;;;6.30;99.90;;;;;;2119630;27;20415;-72
2022/02/11 01:11:23;;;;;;;14.00;9.50;;;6.30;99.90;;;;;;2123219;27;20098;-72
2022/02/11 01:12:25;;;;;;;11.10;8.65;;;6.30;99.90;;;;;;2122556;27;20022;-72
2022/02/11 01:13:27;;;;;;;12.95;8.95;;;6.30;99.90;;;;;;2115287;28;20736;-72
2022/02/11 01:14:36;;;;;;;12.10;9.75;;;6.30;99.90;;;;;;2117698;27;20058;-72
2022/02/11 01:15:40;;;;;;;14.57;9.13;;;6.30;99.90;;;;;;2122187;27;20023;-72
2022/02/11 01:16:49;;;;;;;10.32;9.25;;;6.30;99.90;;;;;;2117432;27;20034;-72
2022/02/11 01:17:57;;;;;;;13.10;9.18;;;6.30;99.90;;;;;;2118235;27;20043;-72
2022/02/11 01:19:08;;;;;;;11.77;8.90;;;6.30;99.90;;;;;;2116925;27;20475;-72
2022/02/11 01:20:39;;;;;;;9.93;8.93;;;6.30;99.90;;;;;;2125209;27;20042;-72
2022/02/11 01:21:51;;;;;;;11.60;9.32;;;6.20;99.90;;;;;;2125941;27;20034;-72
2022/02/11 01:24:55;;;;;;;12.77;9.43;;;6.20;99.90;;;;;;2123546;27;20025;-72
2022/02/11 01:26:49;;;;;;;13.95;11.07;;;6.20;99.90;;;;;;2121007;27;20027;-72
2022/02/11 01:32:00;;;;;;;12.07;10.30;;;6.10;99.90;;;;;;2122639;27;20028;-72
2022/02/11 01:37:53;;;;;;;14.35;10.40;;;6.10;99.90;;;;;;2125013;27;20023;-72
2022/02/11 01:40:30;;;;;;;13.60;10.32;;;6.00;99.90;;;;;;2120458;27;20038;-72
2022/02/11 01:52:49;;;;;;;18.73;12.23;;;5.90;99.90;;;;;;2123920;27;20102;-72
2022/02/11 01:56:20;;;;;;;15.30;12.05;;;5.90;99.90;;;;;;2122963;27;20027;-72
2022/02/11 02:00:14;;;;;;;15.68;12.13;;;5.90;99.90;;;;;;2119876;27;20076;-72
2022/02/11 02:04:05;;;;;;;14.95;12.05;;;5.90;99.90;;;;;;2123639;27;20019;-72
2022/02/11 02:06:35;;;;;;;15.55;12.02;;;5.80;99.90;;;;;;2118501;27;20069;-72
2022/02/11 02:13:43;;;;;;;14.48;12.30;;;5.80;99.90;;;;;;2100436;28;20037;-71
2022/02/11 02:19:08;;;;;;;16.27;13.57;;;5.70;99.90;;;;;;2097509;28;20028;-71
2022/02/11 02:20:39;;;;;;;18.00;13.93;;;5.70;99.90;;;;;;2096617;28;20033;-71
2022/02/11 02:21:50;;;;;;;17.65;12.30;;;5.60;99.90;;;;;;2116611;27;20034;-72
2022/02/11 02:24:23;;;;;;;16.10;13.52;;;5.60;99.90;;;;;;2119214;27;20028;-72
2022/02/11 02:25:34;;;;;;;16.10;13.13;;;5.60;99.90;;;;;;2119132;27;20475;-72
2022/02/11 02:29:55;;;;;;;15.70;13.32;;;5.50;99.90;;;;;;2121504;27;20173;-71
2022/02/11 02:33:34;;;;;;;14.85;12.85;;;5.50;99.90;;;;;;2118449;27;20467;-71
2022/02/11 02:34:47;;;;;;;15.77;13.30;;;5.40;99.90;;;;;;2121198;27;20038;-71
2022/02/11 02:43:18;;;;;;;15.95;12.57;;;5.40;99.90;;;;;;2122926;27;20030;-72
2022/02/11 02:50:10;;;;;;;17.67;12.88;;;5.30;99.90;;;;;;2121925;27;20019;-71
2022/02/11 02:50:13;;;;;;;16.02;11.43;;;5.20;99.90;;;;;;2122624;27;20031;-71
2022/02/11 02:56:53;;;;;;;14.27;10.70;;;5.20;99.90;;;;;;2120877;27;20027;-72
2022/02/11 02:58:11;;;;;;;13.18;11.30;;;5.20;99.90;;;;;;2120219;27;20535;-71
2022/02/11 02:59:26;;;;;;;18.00;11.40;;;5.20;99.90;;;;;;2117188;27;20083;-71
2022/02/11 03:15:10;;;;;;;17.92;11.10;;;5.10;99.90;;;;;;2116514;27;20051;-71
2022/02/11 03:17:54;;;;;;;14.65;11.50;;;5.10;99.90;;;;;;2118310;27;20058;-71
2022/02/11 03:34:50;;;;;;;17.73;12.63;;;5.10;99.90;;;;;;2124580;27;20018;-71
2022/02/11 03:49:16;;;;;;;15.75;11.35;;;5.00;99.90;;;;;;2118560;27;20027;-71
2022/02/11 03:50:45;;;;;;;16.10;10.70;;;5.00;99.90;;;;;;2122852;27;20362;-71
2022/02/11 04:21:00;;;;;;;15.63;9.85;;;5.20;99.90;;;;;;2121124;27;20482;-72
2022/02/11 04:52:37;;;;;;;17.98;10.43;;;5.20;99.90;;;;;;2117021;27;20379;-72
2022/02/11 04:53:52;;;;;;;16.17;10.32;;;5.30;99.90;;;;;;2118652;27;20024;-72
2022/02/11 04:55:52;;;;;;;14.82;10.00;;;5.40;99.90;;;;;;2124843;27;20023;-72
2022/02/11 04:56:53;;;;;;;15.25;9.32;;;5.40;99.90;;;;;;2121591;27;20023;-72
2022/02/11 05:00:32;;;;;;;13.45;9.45;;;5.40;99.90;;;;;;2123198;27;20019;-72
2022/02/11 05:01:33;;;;;;;14.82;9.38;;;5.40;99.90;;;;;;2121264;27;20023;-72
2022/02/11 05:02:35;;;;;;;16.77;10.20;;;5.40;99.90;;;;;;2125037;27;20038;-72
2022/02/11 05:03:36;;;;;;;15.98;10.63;;;5.40;99.90;;;;;;2118908;27;20019;-72
2022/02/11 05:04:36;;;;;;;18.17;10.57;;;5.40;99.90;;;;;;2116945;27;20036;-72
2022/02/11 05:05:49;;;;;;;15.18;10.52;;;5.40;99.90;;;;;;2122912;27;20034;-72
2022/02/11 05:06:49;;;;;;;18.85;9.85;;;5.50;99.90;;;;;;2116045;27;20059;-73
2022/02/11 05:07:50;;;;;;;15.32;11.05;;;5.50;99.90;;;;;;2121440;27;20012;-72
2022/02/11 05:08:51;;;;;;;17.50;11.35;;;5.50;99.90;;;;;;2118223;27;20016;-72
2022/02/11 05:09:51;;;;;;;16.38;10.32;;;5.50;99.90;;;;;;2120360;27;20030;-72
2022/02/11 05:10:54;;;;;;;15.05;10.52;;;5.60;99.90;;;;;;2125146;27;20031;-73
2022/02/11 05:11:54;;;;;;;15.07;10.98;;;5.60;99.90;;;;;;2123520;27;20221;-72
2022/02/11 05:12:55;;;;;;;15.27;9.70;;;5.60;99.90;;;;;;2120536;27;20129;-73
2022/02/11 05:13:55;;;;;;;17.20;11.10;;;5.60;99.90;;;;;;2123627;27;20058;-72
2022/02/11 05:14:56;;;;;;;16.02;10.38;;;5.60;99.90;;;;;;2119375;27;20023;-72
2022/02/11 05:15:56;;;;;;;18.65;11.23;;;5.60;99.90;;;;;;2119996;27;20024;-72
2022/02/11 05:16:57;;;;;;;15.02;10.43;;;5.60;99.90;;;;;;2119021;27;20463;-72
2022/02/11 05:18:00;;;;;;;15.32;10.63;;;5.60;99.90;;;;;;2118627;27;20488;-72
2022/02/11 05:19:00;;;;;;;23.63;11.02;;;5.60;99.90;;;;;;2122389;27;20035;-72
2022/02/11 05:20:01;;;;;;;13.48;11.05;;;5.60;99.90;;;;;;2110759;27;20030;-72
2022/02/11 05:21:01;;;;;;;19.60;11.68;;;5.60;99.90;;;;;;2121766;27;20437;-72
2022/02/11 05:22:02;;;;;;;19.60;10.82;;;5.60;99.90;;;;;;2119520;27;20039;-72
2022/02/11 05:23:12;;;;;;;20.73;11.75;;;5.60;99.90;;;;;;2117065;27;20023;-72
2022/02/11 05:24:12;;;;;;;15.60;10.32;;;5.60;99.90;;;;;;2118730;27;20068;-72
2022/02/11 05:25:13;;;;;;;20.15;11.55;;;5.60;99.90;;;;;;2119851;27;20083;-72
2022/02/11 05:26:13;;;;;;;16.13;10.15;;;5.60;99.90;;;;;;2121620;27;20071;-72
2022/02/11 05:27:14;;;;;;;18.90;10.82;;;5.60;99.90;;;;;;2117556;27;20892;-72
2022/02/11 05:28:15;;;;;;;16.02;10.07;;;5.60;99.90;;;;;;2115867;27;20023;-72
2022/02/11 05:29:15;;;;;;;17.85;10.82;;;5.60;99.90;;;;;;2117933;27;20059;-72
2022/02/11 05:30:16;;;;;;;15.55;10.55;;;5.60;99.90;;;;;;2115880;27;20043;-72
2022/02/11 05:31:16;;;;;;;14.45;9.68;;;5.60;99.90;;;;;;2119578;27;20026;-72
2022/02/11 05:32:17;;;;;;;20.85;11.10;;;5.60;99.90;;;;;;2118645;27;20019;-72
2022/02/11 05:33:20;;;;;;;13.23;10.00;;;5.60;99.90;;;;;;2116332;27;20049;-73
2022/02/11 05:34:20;;;;;;;15.93;10.90;;;5.60;99.90;;;;;;2117030;27;20019;-72
2022/02/11 05:35:21;;;;;;;20.02;11.73;;;5.70;99.90;;;;;;2115196;27;20016;-72
2022/02/11 05:36:22;;;;;;;19.88;11.07;;;5.70;99.90;;;;;;2119957;27;20023;-72
2022/02/11 05:37:24;;;;;;;15.63;10.48;;;5.70;99.90;;;;;;2121153;27;20023;-72
2022/02/11 05:38:24;;;;;;;19.02;10.45;;;5.70;99.90;;;;;;2118348;27;20015;-72
2022/02/11 05:39:25;;;;;;;15.70;9.95;;;5.70;99.90;;;;;;2119237;27;20355;-72
2022/02/11 05:40:26;;;;;;;16.70;10.15;;;5.70;99.90;;;;;;2115796;27;20028;-72
2022/02/11 05:41:26;;;;;;;15.73;9.95;;;5.80;99.90;;;;;;2116330;27;20053;-72
2022/02/11 05:42:28;;;;;;;13.07;9.95;;;5.70;99.90;;;;;;2114964;27;20022;-72
2022/02/11 05:43:28;;;;;;;16.00;11.43;;;5.80;99.90;;;;;;2117945;27;20418;-72
2022/02/11 05:44:29;;;;;;;19.15;11.00;;;5.80;99.90;;;;;;2116608;27;20182;-72
2022/02/11 05:45:30;;;;;;;15.82;10.98;;;5.80;99.90;;;;;;2115187;27;20031;-72
2022/02/11 05:46:31;;;;;;;17.52;11.65;;;5.80;99.90;;;;;;2117428;27;20687;-72
2022/02/11 05:47:31;;;;;;;14.68;10.07;;;5.80;99.90;;;;;;2118290;27;20614;-72
2022/02/11 05:48:33;;;;;;;18.17;10.85;;;5.80;99.90;;;;;;2118367;27;20019;-72
2022/02/11 05:49:34;;;;;;;19.15;10.80;;;5.90;99.90;;;;;;2118359;27;20012;-72
2022/02/11 05:50:34;;;;;;;14.70;10.77;;;5.90;99.90;;;;;;2115616;27;20479;-72
2022/02/11 05:51:35;;;;;;;18.08;11.13;;;5.90;99.90;;;;;;2120768;27;20047;-72
2022/02/11 05:52:35;;;;;;;15.82;11.15;;;5.80;99.90;;;;;;2118584;27;20019;-72
2022/02/11 05:53:36;;;;;;;17.23;10.60;;;5.80;99.90;;;;;;2117512;27;20161;-72
2022/02/11 05:54:37;;;;;;;17.73;10.18;;;5.90;99.90;;;;;;2115769;27;20064;-72
2022/02/11 05:55:37;;;;;;;18.40;10.68;;;5.90;99.90;;;;;;2116243;27;20031;-73
2022/02/11 05:56:38;;;;;;;16.10;10.15;;;5.90;99.90;;;;;;2119492;27;20024;-73
2022/02/11 05:57:39;;;;;;;15.88;9.73;;;5.90;99.90;;;;;;2118939;27;20019;-73
2022/02/11 05:58:39;;;;;;;16.65;9.45;;;5.90;99.90;;;;;;2116241;27;20394;-72
2022/02/11 05:59:40;;;;;;;14.70;9.23;;;5.90;99.90;;;;;;2117843;27;20024;-73
2022/02/11 06:00:40;;;;;;;14.52;9.15;;;5.90;99.90;;;;;;2116088;27;20395;-72
2022/02/11 06:01:41;;;;;;;21.90;10.07;;;5.90;99.90;;;;;;2114612;27;20066;-72
2022/02/11 06:02:41;;;;;;;18.30;11.30;;;5.90;99.90;;;;;;2116197;27;20019;-73
2022/02/11 06:03:42;;;;;;;14.98;10.23;;;5.90;99.90;;;;;;2119229;27;20079;-73
2022/02/11 06:04:43;;;;;;;14.38;10.10;;;5.90;99.90;;;;;;2112974;27;20107;-72
2022/02/11 06:05:43;;;;;;;21.85;10.07;;;6.00;99.90;;;;;;2114786;27;20015;-73
2022/02/11 06:06:44;;;;;;;15.93;9.57;;;6.00;99.90;;;;;;2114491;27;20019;-73
2022/02/11 06:07:45;;;;;;;17.45;9.75;;;6.00;99.90;;;;;;2114964;27;20463;-73
2022/02/11 06:08:45;;;;;;;18.98;9.80;;;6.00;99.90;;;;;;2116276;27;20088;-72
2022/02/11 06:09:46;;;;;;;16.63;8.88;;;6.00;99.90;;;;;;2114586;27;20475;-73
2022/02/11 06:10:48;;;;;;;18.20;9.45;;;6.00;99.90;;;;;;2114623;27;20055;-72
2022/02/11 06:11:48;;;;;;;20.13;9.82;;;6.00;99.90;;;;;;2115503;27;20110;-73
2022/02/11 06:12:49;;;;;;;16.88;9.27;;;6.10;99.90;;;;;;2116014;27;20558;-73
2022/02/11 06:13:49;;;;;;;21.15;9.43;;;6.10;99.90;;;;;;2115320;27;20446;-72
2022/02/11 06:14:50;;;;;;;17.25;8.63;;;6.10;99.90;;;;;;2118005;27;20027;-72
2022/02/11 06:15:50;;;;;;;15.27;7.80;;;6.10;99.90;;;;;;2113105;27;20035;-73
2022/02/11 06:16:51;;;;;;;17.52;7.68;;;6.10;99.90;;;;;;2116574;27;20083;-73
2022/02/11 06:17:52;;;;;;;15.45;8.05;;;6.10;99.90;;;;;;2118764;27;20763;-72
2022/02/11 06:18:52;;;;;;;18.83;8.07;;;6.10;99.90;;;;;;2115780;27;20080;-72
2022/02/11 06:19:53;;;;;;;21.83;9.10;;;6.10;99.90;;;;;;2115100;27;20415;-72
2022/02/11 06:20:53;;;;;;;16.33;7.65;;;6.10;99.90;;;;;;2115416;27;20024;-72
2022/02/11 06:21:54;;;;;;;24.20;9.02;;;6.10;99.90;;;;;;2115449;27;20036;-72
2022/02/11 06:22:56;;;;;;;20.17;7.38;;;6.10;99.90;;;;;;2114988;27;20032;-72
2022/02/11 06:23:57;;;;;;;20.55;8.45;;;6.10;99.90;;;;;;2116690;27;20025;-72
2022/02/11 06:24:57;;;;;;;21.73;7.97;;;6.10;99.90;;;;;;2113050;27;20039;-73
2022/02/11 06:25:58;;;;;;;17.75;7.50;;;6.10;99.90;;;;;;2116621;27;20390;-72
2022/02/11 06:26:58;;;;;;;22.33;6.65;;;6.10;99.90;;;;;;2112484;27;20016;-72
2022/02/11 06:27:59;;;;;;;15.23;6.72;;;6.20;99.90;;;;;;2114555;27;20031;-72
2022/02/11 06:28:59;;;;;;;20.17;7.22;;;6.10;99.90;;;;;;2113057;27;20084;-72
2022/02/11 06:30:00;;;;;;;14.10;6.47;;;6.10;99.90;;;;;;2114009;27;20968;-72
2022/02/11 06:31:01;;;;;;;15.95;6.53;;;6.20;99.90;;;;;;2116086;27;20027;-72
2022/02/11 06:32:05;;;;;;;18.75;6.35;;;6.20;99.90;;;;;;2114532;27;20073;-72
2022/02/11 06:33:06;;;;;;;15.90;6.72;;;6.20;99.90;;;;;;2116818;27;20118;-72
2022/02/11 06:34:06;;;;;;;20.10;7.30;;;6.20;99.90;;;;;;2113564;27;20031;-72
2022/02/11 06:35:11;;;;;;;18.23;6.63;;;6.20;99.90;;;;;;2114207;27;20054;-72
2022/02/11 06:36:11;;;;;;;15.23;5.68;;;6.20;99.90;;;;;;2114655;27;20028;-73
2022/02/11 06:37:12;;;;;;;18.48;6.25;;;6.20;99.90;;;;;;2115042;27;20027;-72
2022/02/11 06:38:12;;;;;;;14.80;5.88;;;6.20;99.90;;;;;;2113792;27;20043;-72
2022/02/11 06:39:13;;;;;;;13.85;5.43;;;6.20;99.90;;;;;;2114593;27;20175;-72
2022/02/11 06:40:14;;;;;;;17.10;5.93;;;6.20;99.90;;;;;;2118653;27;20965;-73
2022/02/11 06:41:15;;;;;;;12.25;5.70;;;6.20;99.90;;;;;;2115993;27;20055;-72
2022/02/11 06:42:15;;;;;;;19.27;6.15;;;6.20;99.90;;;;;;2117656;27;20027;-73
2022/02/11 06:43:16;;;;;;;11.63;5.03;;;6.20;99.90;;;;;;2117820;27;20057;-73
2022/02/11 06:44:17;;;;;;;12.40;5.28;;;6.30;99.90;;;;;;2119238;27;20105;-72
2022/02/11 06:45:17;;;;;;;17.67;6.50;;;6.20;99.90;;;;;;2116691;27;20019;-73
2022/02/11 06:46:20;;;;;;;15.82;5.47;;;6.30;99.90;;;;;;2116138;27;20099;-72
2022/02/11 06:47:20;;;;;;;18.35;5.95;;;6.30;99.90;;;;;;2113631;27;20474;-73
2022/02/11 06:48:23;;;;;;;19.77;6.25;;;6.20;99.90;;;;;;2113602;27;20387;-73
2022/02/11 06:49:24;;;;;;;20.10;5.20;;;6.30;99.90;;;;;;2113540;27;20102;-72
2022/02/11 06:50:24;;;;;;;12.27;4.82;;;6.30;99.90;;;;;;2116452;27;20011;-72
2022/02/11 06:51:25;;;;;;;17.38;5.55;;;6.30;99.90;;;;;;2118842;27;20106;-72
2022/02/11 06:52:25;;;;;;;16.83;5.32;;;6.30;99.90;;;;;;2117614;27;20119;-73
2022/02/11 06:53:26;;;;;;;16.23;5.00;;;6.30;99.90;;;;;;2117526;27;20028;-72
2022/02/11 06:54:27;;;;;;;11.13;4.07;;;6.30;99.90;;;;;;2117319;27;20119;-72
2022/02/11 06:55:27;;;;;;;13.80;4.47;;;6.30;99.90;;;;;;2114575;27;20059;-72
2022/02/11 06:56:28;;;;;;;17.98;5.50;;;6.30;99.90;;;;;;2115065;27;20436;-72
2022/02/11 06:57:28;;;;;;;16.33;4.55;;;6.40;99.90;;;;;;2119800;27;20071;-72
2022/02/11 06:58:29;;;;;;;17.70;4.97;;;6.30;99.90;;;;;;2115717;27;20024;-72
2022/02/11 06:59:30;;;;;;;18.23;5.03;;;6.30;99.90;;;;;;2113475;27;20507;-72
2022/02/11 07:00:30;;;;;;;18.40;4.28;;;6.30;99.90;;;;;;2116052;27;20421;-72
2022/02/11 07:01:31;;;;;;;13.07;3.80;;;6.30;99.90;;;;;;2118187;27;20133;-72
2022/02/11 07:02:31;;;;;;;14.88;5.03;;;6.30;99.90;;;;;;2118589;27;20016;-73
2022/02/11 07:03:32;;;;;;;19.48;4.65;;;6.40;99.90;;;;;;2116974;27;20021;-72
2022/02/11 07:04:32;;;;;;;12.68;4.22;;;6.30;99.90;;;;;;2115500;27;20023;-72
2022/02/11 07:05:34;;;;;;;11.68;4.10;;;6.30;99.90;;;;;;2117075;27;20022;-72
2022/02/11 07:06:35;;;;;;;14.77;3.53;;;6.40;99.90;;;;;;2117397;27;20015;-72
2022/02/11 07:07:36;;;;;;;14.88;4.70;;;6.40;99.90;;;;;;2114373;27;20482;-72
2022/02/11 07:08:36;;;;;;;13.88;4.05;;;6.40;99.90;;;;;;2114490;27;20130;-72
2022/02/11 07:09:37;;;;;;;15.60;3.78;;;6.40;99.90;;;;;;2116752;27;20020;-72
2022/02/11 07:10:38;;;;;;;14.50;3.45;;;6.40;99.90;;;;;;2114411;27;20100;-73
2022/02/11 07:11:39;;;;;;;9.93;3.67;;;6.40;99.90;;;;;;2115530;27;20021;-72
2022/02/11 07:12:39;;;;;;;14.68;4.15;;;6.40;99.90;;;;;;2116947;27;20648;-72
2022/02/11 07:13:40;;;;;;;13.85;4.03;;;6.40;99.90;;;;;;2117417;27;20023;-72
2022/02/11 07:14:40;;;;;;;15.25;4.47;;;6.40;99.90;;;;;;2114954;27;20400;-73
2022/02/11 07:15:42;;;;;;;13.10;3.38;;;6.40;99.90;;;;;;2116895;27;20094;-72
2022/02/11 07:16:44;;;;;;;18.80;3.65;;;6.40;99.90;;;;;;2119763;27;20060;-72
2022/02/11 07:17:45;;;;;;;16.02;3.95;;;6.40;99.90;;;;;;2119123;27;20023;-72
2022/02/11 07:18:45;;;;;;;13.93;4.03;;;6.40;99.90;;;;;;2116665;27;20051;-72
2022/02/11 07:19:46;;;;;;;12.20;3.95;;;6.40;99.90;;;;;;2120739;27;20035;-72
2022/02/11 07:20:49;;;;;;;12.48;3.17;;;6.40;99.90;;;;;;2115039;27;20068;-72
2022/02/11 07:21:49;;;;;;;9.25;3.80;;;6.40;99.90;;;;;;2115988;27;20349;-72
2022/02/11 07:22:50;;;;;;;18.63;4.53;;;6.50;99.90;;;;;;2116178;27;20046;-72
2022/02/11 07:23:50;;;;;;;14.80;3.75;;;6.50;99.90;;;;;;2117874;27;20030;-72
2022/02/11 07:24:53;;;;;;;15.20;3.45;;;6.50;99.90;;;;;;2117796;27;20111;-72
2022/02/11 07:25:53;;;;;;;12.85;3.70;;;6.50;99.90;;;;;;2116895;27;20015;-72
2022/02/11 07:26:55;;;;;;;9.80;3.25;;;6.50;99.90;;;;;;2116882;27;20103;-72
2022/02/11 07:27:55;;;;;;;11.75;3.25;;;6.50;99.90;;;;;;2119627;27;20379;-72
2022/02/11 07:28:56;;;;;;;13.52;3.33;;;6.50;99.90;;;;;;2118125;27;20019;-72
2022/02/11 07:29:56;;;;;;;15.90;3.65;;;6.50;99.90;;;;;;2116020;27;20419;-72
2022/02/11 07:30:58;;;;;;;13.80;3.60;;;6.50;99.90;;;;;;2114180;27;20031;-72
2022/02/11 07:31:59;;;;;;;11.07;3.45;;;6.50;99.90;;;;;;2115934;27;21718;-72
2022/02/11 07:32:59;;;;;;;22.20;3.83;;;6.50;99.90;;;;;;2115748;27;20388;-72
2022/02/11 07:34:00;;;;;;;16.92;3.20;;;6.40;99.90;;;;;;2118684;27;20023;-72
2022/02/11 07:35:02;;;;;;;17.13;3.75;;;6.40;99.90;;;;;;2119368;27;20050;-72
2022/02/11 07:36:04;;;;;;;13.30;2.42;;;6.50;99.90;;;;;;2119468;27;20058;-72
2022/02/11 07:37:04;;;;;;;12.93;2.80;;;6.40;99.90;;;;;;2115544;27;20600;-72
2022/02/11 07:38:05;;;;;;;10.52;2.75;;;6.50;99.90;;;;;;2113155;27;20522;-72
2022/02/11 07:39:06;;;;;;;14.35;2.92;;;6.50;99.90;;;;;;2114503;27;20032;-72
2022/02/11 07:40:07;;;;;;;12.55;3.05;;;6.50;99.90;;;;;;2116118;27;20031;-72
2022/02/11 07:41:07;;;;;;;13.35;3.22;;;6.50;99.90;;;;;;2116532;27;20016;-72
2022/02/11 07:42:08;;;;;;;10.48;2.72;;;6.50;99.90;;;;;;2117405;27;20047;-72
2022/02/11 07:43:08;;;;;;;14.05;3.67;;;6.50;99.90;;;;;;2117228;27;20042;-72
2022/02/11 07:44:09;;;;;;;14.07;4.03;;;6.50;99.90;;;;;;2120296;27;20110;-72
2022/02/11 07:45:11;;;;;;;13.35;3.40;;;6.50;99.90;;;;;;2117753;27;20028;-72
2022/02/11 07:46:11;;;;;;;10.05;3.00;;;6.50;99.90;;;;;;2120695;27;20036;-72
2022/02/11 07:47:12;;;;;;;16.55;3.42;;;6.50;99.90;;;;;;2119460;27;20048;-72
2022/02/11 07:48:12;;;;;;;12.27;3.15;;;6.50;99.90;;;;;;2119696;27;20390;-72
2022/02/11 07:49:13;;;;;;;17.40;3.30;;;6.50;99.90;;;;;;2122871;27;20054;-72
2022/02/11 07:50:13;;;;;;;12.48;3.30;;;6.50;99.90;;;;;;2121863;27;20027;-72
2022/02/11 07:51:14;;;;;;;11.95;2.50;;;6.50;99.90;;;;;;2119029;27;20098;-72
2022/02/11 07:52:15;;;;;;;10.73;3.13;;;6.50;99.90;;;;;;2117158;27;20101;-72
2022/02/11 07:53:16;;;;;;;12.07;3.35;;;6.50;99.90;;;;;;2116705;27;20023;-72
2022/02/11 07:54:16;;;;;;;11.40;3.10;;;6.60;99.90;;;;;;2120048;27;20045;-72
2022/02/11 07:55:17;;;;;;;14.85;2.88;;;6.50;99.90;;;;;;2120382;27;20463;-72
2022/02/11 07:56:17;;;;;;;9.18;2.63;;;6.50;99.90;;;;;;2119587;27;20022;-72
2022/02/11 07:57:18;;;;;;;9.60;2.65;;;6.60;99.90;;;;;;2120418;27;20041;-72
2022/02/11 07:58:20;;;;;;;10.63;2.30;;;6.60;99.90;;;;;;2121537;27;20386;-72
2022/02/11 07:59:20;;;;;;;14.27;3.00;;;6.60;99.90;;;;;;2115407;27;20490;-72
2022/02/11 08:00:22;;;;;;;12.27;3.05;;;6.60;99.90;;;;;;2114664;27;20527;-72
2022/02/11 08:01:23;;;;;;;16.65;3.83;;;6.70;99.90;;;;;;2116841;27;20042;-72
2022/02/11 08:02:24;;;;;;;9.45;2.70;;;6.60;99.90;;;;;;2117408;27;20023;-72
2022/02/11 08:03:24;;;;;;;13.20;3.03;;;6.60;99.90;;;;;;2121605;27;20027;-72
2022/02/11 08:04:25;;;;;;;17.17;3.13;;;6.60;99.90;;;;;;2121096;27;20034;-72
2022/02/11 08:05:25;;;;;;;15.68;2.90;;;6.60;99.90;;;;;;2118742;28;20072;-72
2022/02/11 08:06:26;;;;;;;13.07;2.92;;;6.60;99.90;;;;;;2121619;27;20019;-72
2022/02/11 08:07:26;;;;;;;9.25;2.90;;;6.60;99.90;;;;;;2122006;27;20019;-72
2022/02/11 08:08:31;;;;;;;15.65;3.13;;;6.60;99.90;;;;;;2118668;27;20068;-72
2022/02/11 08:09:31;;;;;;;11.93;3.00;;;6.70;99.90;;;;;;2118468;27;20019;-72
2022/02/11 08:10:32;;;;;;;10.15;2.78;;;6.70;99.90;;;;;;2118038;27;20047;-72
2022/02/11 08:11:32;;;;;;;10.73;2.92;;;6.70;99.90;;;;;;2130250;27;20050;-72
2022/02/11 08:12:34;;;;;;;12.30;3.15;;;6.70;99.90;;;;;;2123061;27;20019;-72
2022/02/11 08:13:36;;;;;;;13.35;3.15;;;6.70;99.90;;;;;;2118354;27;20099;-72
2022/02/11 08:14:37;;;;;;;7.70;2.60;;;6.70;99.90;;;;;;2122497;27;20491;-72
2022/02/11 08:15:37;;;;;;;6.90;2.33;;;6.70;99.90;;;;;;2124275;27;20355;-72
2022/02/11 08:16:38;;;;;;;12.00;2.95;;;6.70;99.90;;;;;;2119006;27;20047;-72
2022/02/11 08:17:41;;;;;;;11.50;3.33;;;6.70;99.90;;;;;;2119332;27;20019;-72
2022/02/11 08:18:42;;;;;;;13.70;2.78;;;6.70;99.90;;;;;;2114731;27;20482;-73
2022/02/11 08:19:42;;;;;;;11.00;4.00;;;6.70;99.90;;;;;;2123526;27;20374;-72
2022/02/11 08:20:43;;;;;;;14.10;3.75;;;6.70;99.90;;;;;;2124599;27;20019;-72
2022/02/11 08:21:43;;;;;;;12.80;2.92;;;6.80;99.90;;;;;;2118720;27;20020;-72
2022/02/11 08:22:44;;;;;;;14.85;3.42;;;6.80;99.90;;;;;;2122553;27;20490;-72
2022/02/11 08:23:44;;;;;;;19.38;3.40;;;6.80;99.90;;;;;;2118995;27;20030;-72
2022/02/11 08:24:45;;;;;;;15.70;3.50;;;6.80;99.90;;;;;;2118003;27;20106;-72
2022/02/11 08:25:45;;;;;;;11.60;2.88;;;6.80;99.90;;;;;;2119239;27;20027;-72
2022/02/11 08:26:46;;;;;;;14.48;3.45;;;6.80;99.90;;;;;;2117756;27;20026;-72
2022/02/11 08:27:47;;;;;;;11.05;3.45;;;6.80;99.90;;;;;;2116521;27;20713;-72
2022/02/11 08:28:48;;;;;;;16.77;3.58;;;6.80;99.90;;;;;;2117486;27;20030;-72
2022/02/11 08:29:48;;;;;;;16.33;4.07;;;6.80;99.90;;;;;;2116441;27;20020;-72
2022/02/11 08:30:50;;;;;;;13.77;4.07;;;6.80;99.90;;;;;;2117310;27;20027;-72
2022/02/11 08:31:55;;;;;;;11.93;3.35;;;6.80;99.90;;;;;;2116107;27;20071;-72
2022/02/11 08:32:56;;;;;;;19.15;4.28;;;6.80;99.90;;;;;;2118038;27;20055;-72
2022/02/11 08:33:56;;;;;;;14.07;3.72;;;6.80;99.90;;;;;;2120391;27;20028;-71
2022/02/11 08:34:57;;;;;;;16.92;3.53;;;6.80;99.90;;;;;;2120935;27;20051;-71
2022/02/11 08:35:58;;;;;;;14.45;3.28;;;6.80;99.90;;;;;;2114275;27;20023;-72
2022/02/11 08:36:58;;;;;;;16.08;3.45;;;6.80;99.90;;;;;;2125041;27;20057;-72
2022/02/11 08:37:59;;;;;;;17.95;4.03;;;6.80;99.90;;;;;;2119799;27;20032;-72
2022/02/11 08:39:00;;;;;;;16.25;3.60;;;6.80;99.90;;;;;;2122075;27;20031;-71
2022/02/11 08:40:01;;;;;;;12.57;2.88;;;6.80;99.90;;;;;;2116618;27;20746;-71
2022/02/11 08:41:01;;;;;;;15.35;3.75;;;6.80;99.90;;;;;;2121782;27;20023;-71
2022/02/11 08:42:02;;;;;;;13.90;3.75;;;6.80;99.90;;;;;;2118222;27;20062;-71
2022/02/11 08:43:04;;;;;;;19.60;4.05;;;6.80;99.90;;;;;;2118552;27;20027;-71
2022/02/11 08:44:04;;;;;;;20.10;4.10;;;6.80;99.90;;;;;;2125125;27;20026;-72
2022/02/11 08:45:07;;;;;;;12.57;3.42;;;6.80;99.90;;;;;;2124142;27;20039;-71
2022/02/11 08:46:08;;;;;;;14.40;3.67;;;6.80;99.90;;;;;;2119563;27;20027;-71
2022/02/11 08:47:08;;;;;;;19.50;4.15;;;6.80;99.90;;;;;;2121517;27;20502;-71
2022/02/11 08:48:11;;;;;;;14.57;3.78;;;6.80;99.90;;;;;;2122217;27;20102;-71
2022/02/11 08:49:12;;;;;;;17.70;3.50;;;6.80;99.90;;;;;;2123870;27;20365;-71
2022/02/11 08:50:18;;;;;;;10.88;3.60;;;6.80;99.90;;;;;;2123068;27;20117;-71
2022/02/11 08:51:18;;;;;;;21.15;4.25;;;6.80;99.90;;;;;;2124168;27;20019;-71